Time;durP1;ratioP1;P1;durP2;ratioP2;P2;SDS_P1;SDS_P2;PMS_P1;PMS_P2;Temp;Humidity;BMP_temperature;BMP_pressure;BME280_temperature;BME280_humidity;BME280_pressure;Samples;Min_cycle;Max_cycle;Signal;HPM_P1;HPM_P2
2022/05/09 00:01:51;;;;;;;;;;;14.40;99.90;;;;;;5136388;27;19960;-75
2022/05/09 00:04:17;;;;;;;;;;;14.40;99.90;;;;;;5135748;27;19959;-75
2022/05/09 00:06:42;;;;;;;;;;;14.50;99.90;;;;;;5136105;27;19907;-75
2022/05/09 00:09:08;;;;;;;;;;;14.50;99.90;;;;;;5135227;27;19907;-74
2022/05/09 00:11:34;;;;;;;;;;;14.50;99.90;;;;;;5136231;27;20256;-74
2022/05/09 00:14:00;;;;;;;;;;;14.50;99.90;;;;;;5134504;27;19907;-75
2022/05/09 00:16:27;;;;;;;;;;;14.50;99.90;;;;;;5136035;27;19999;-74
2022/05/09 00:18:52;;;;;;;;;;;14.30;99.90;;;;;;5136116;27;19911;-74
2022/05/09 00:21:18;;;;;;;;;;;14.30;99.90;;;;;;5135800;27;20264;-75
2022/05/09 00:23:44;;;;;;;;;;;14.40;99.90;;;;;;5135676;27;19907;-75
2022/05/09 00:26:09;;;;;;;;;;;14.30;99.90;;;;;;5135094;27;19908;-75
2022/05/09 00:28:35;;;;;;;;;;;14.30;99.90;;;;;;5134628;27;20340;-74
2022/05/09 00:31:00;;;;;;;;;;;14.30;99.90;;;;;;5135267;27;19908;-74
2022/05/09 00:33:26;;;;;;;;;;;14.40;99.90;;;;;;5117143;27;19915;-75
2022/05/09 00:35:52;;;;;;;;;;;14.40;99.90;;;;;;5135744;27;20006;-74
2022/05/09 00:38:18;;;;;;;;;;;14.30;99.90;;;;;;5135041;27;20008;-75
2022/05/09 00:43:29;;;;;;;;;;;14.20;99.90;;;;;;5135477;27;19914;-75
2022/05/09 00:45:55;;;;;;;;;;;14.10;99.90;;;;;;5117055;27;19911;-74
2022/05/09 00:48:21;;;;;;;;;;;14.00;99.90;;;;;;5134908;27;19960;-74
2022/05/09 00:50:47;;;;;;;;;;;13.90;99.90;;;;;;5135437;27;19907;-74
2022/05/09 00:53:12;;;;;;;;;;;13.80;99.90;;;;;;5134785;27;19951;-75
2022/05/09 00:55:42;;;;;;;;;;;13.80;99.90;;;;;;5135323;27;19914;-74
2022/05/09 00:58:08;;;;;;;;;;;13.80;99.90;;;;;;5134611;27;19926;-74
2022/05/09 01:00:34;;;;;;;;;;;13.80;99.90;;;;;;5135158;27;19915;-74
2022/05/09 01:03:04;;;;;;;;;;;13.70;99.90;;;;;;5134840;27;19994;-74
2022/05/09 01:05:30;;;;;;;;;;;13.70;99.90;;;;;;5116545;27;19908;-74
2022/05/09 01:07:56;;;;;;;;;;;13.60;99.90;;;;;;5134954;27;19907;-74
2022/05/09 01:10:27;;;;;;;;;;;13.50;99.90;;;;;;5134397;27;19908;-74
2022/05/09 01:12:52;;;;;;;;;;;13.60;99.90;;;;;;5134897;27;19932;-74
2022/05/09 01:15:18;;;;;;;;;;;13.60;99.90;;;;;;5134366;27;20359;-74
2022/05/09 01:17:45;;;;;;;;;;;13.70;99.90;;;;;;5134883;27;19918;-74
2022/05/09 01:20:11;;;;;;;;;;;13.70;99.90;;;;;;5134566;27;19912;-74
2022/05/09 01:22:38;;;;;;;;;;;13.60;99.90;;;;;;5134816;27;19914;-74
2022/05/09 01:25:06;;;;;;;;;;;13.60;99.90;;;;;;5134206;27;19907;-74
2022/05/09 01:27:36;;;;;;;;;;;13.60;99.90;;;;;;5134403;27;19959;-74
2022/05/09 01:30:11;;;;;;;;;;;13.60;99.90;;;;;;5134108;27;20370;-74
2022/05/09 01:32:38;;;;;;;;;;;13.50;99.90;;;;;;5116173;27;20400;-74
2022/05/09 01:35:07;;;;;;;;;;;13.60;99.90;;;;;;5133895;27;19908;-74
2022/05/09 01:37:34;;;;;;;;;;;13.50;99.90;;;;;;5134380;27;19912;-74
2022/05/09 01:39:59;;;;;;;;;;;13.60;99.90;;;;;;5133348;27;19934;-74
2022/05/09 01:42:25;;;;;;;;;;;13.60;99.90;;;;;;5133837;27;20364;-75
2022/05/09 01:44:51;;;;;;;;;;;13.50;99.90;;;;;;5134299;27;19911;-74
2022/05/09 01:50:00;;;;;;;;;;;13.50;99.90;;;;;;5133905;27;19972;-74
2022/05/09 01:52:26;;;;;;;;;;;13.50;99.90;;;;;;5115296;27;20340;-75
2022/05/09 01:54:52;;;;;;;;;;;13.50;99.90;;;;;;5134227;27;19939;-74
2022/05/09 01:57:18;;;;;;;;;;;13.50;99.90;;;;;;5114787;27;20006;-74
2022/05/09 01:59:44;;;;;;;;;;;13.50;99.90;;;;;;5134310;27;19907;-75
2022/05/09 02:02:14;;;;;;;;;;;13.50;99.90;;;;;;5133444;27;19908;-75
2022/05/09 02:04:40;;;;;;;;;;;13.60;99.90;;;;;;5134289;27;20417;-75
2022/05/09 02:07:09;;;;;;;;;;;13.60;99.90;;;;;;5133405;27;19911;-74
2022/05/09 02:09:45;;;;;;;;;;;13.70;99.90;;;;;;5134014;27;20006;-74
2022/05/09 02:12:11;;;;;;;;;;;13.70;99.90;;;;;;5133370;27;19908;-75
2022/05/09 02:14:37;;;;;;;;;;;13.80;99.90;;;;;;5133997;27;19914;-74
2022/05/09 02:17:04;;;;;;;;;;;13.80;99.90;;;;;;5134151;27;19918;-74
2022/05/09 02:19:29;;;;;;;;;;;13.90;99.90;;;;;;5115085;28;19951;-75
2022/05/09 02:21:55;;;;;;;;;;;13.90;99.90;;;;;;5133977;28;19929;-74
2022/05/09 02:24:22;;;;;;;;;;;13.90;99.90;;;;;;5132991;28;19907;-74
2022/05/09 02:26:48;;;;;;;;;;;13.80;99.90;;;;;;5133891;28;19998;-75
2022/05/09 02:31:59;;;;;;;;;;;13.80;99.90;;;;;;5134065;28;19914;-75
2022/05/09 02:34:24;;;;;;;;;;;13.80;99.90;;;;;;5133052;28;20052;-74
2022/05/09 02:36:50;;;;;;;;;;;13.90;99.90;;;;;;5133561;28;19954;-74
2022/05/09 02:39:15;;;;;;;;;;;13.90;99.90;;;;;;5133245;28;19976;-74
2022/05/09 02:41:41;;;;;;;;;;;13.80;99.90;;;;;;5133911;28;19968;-74
2022/05/09 02:44:07;;;;;;;;;;;13.80;99.90;;;;;;5133113;28;20305;-74
2022/05/09 02:46:33;;;;;;;;;;;13.80;99.90;;;;;;5133353;28;19908;-75
2022/05/09 02:48:59;;;;;;;;;;;13.70;99.90;;;;;;5133452;28;19942;-75
2022/05/09 02:51:26;;;;;;;;;;;13.70;99.90;;;;;;5135091;27;19912;-74
2022/05/09 02:53:51;;;;;;;;;;;13.70;99.90;;;;;;5136963;27;19912;-75
2022/05/09 02:56:17;;;;;;;;;;;13.70;99.90;;;;;;5136793;27;20382;-75
2022/05/09 02:58:43;;;;;;;;;;;13.70;99.90;;;;;;5118642;27;19920;-74
2022/05/09 03:01:09;;;;;;;;;;;13.70;99.90;;;;;;5136717;27;20271;-74
2022/05/09 03:06:18;;;;;;;;;;;13.60;99.90;;;;;;5136325;27;19995;-75
2022/05/09 03:08:44;;;;;;;;;;;13.60;99.90;;;;;;5137475;27;20336;-75
2022/05/09 03:11:10;;;;;;;;;;;13.50;99.90;;;;;;5136701;27;19946;-75
2022/05/09 03:13:36;;;;;;;;;;;13.50;99.90;;;;;;5137345;27;19961;-75
2022/05/09 03:16:02;;;;;;;;;;;13.40;99.90;;;;;;5119117;27;19907;-74
2022/05/09 03:18:27;;;;;;;;;;;13.40;99.90;;;;;;5136505;27;20899;-75
2022/05/09 03:20:53;;;;;;;;;;;13.40;99.90;;;;;;5137146;27;20276;-75
2022/05/09 03:23:19;;;;;;;;;;;13.40;99.90;;;;;;5136554;27;19950;-74
2022/05/09 03:25:45;;;;;;;;;;;13.40;99.90;;;;;;5137413;27;19972;-75
2022/05/09 03:28:12;;;;;;;;;;;13.40;99.90;;;;;;5136991;27;19908;-75
2022/05/09 03:30:39;;;;;;;;;;;13.40;99.90;;;;;;5136985;27;19959;-75
2022/05/09 03:33:06;;;;;;;;;;;13.30;99.90;;;;;;5118656;27;19911;-75
2022/05/09 03:35:32;;;;;;;;;;;13.40;99.90;;;;;;5136173;27;20364;-75
2022/05/09 03:37:57;;;;;;;;;;;13.40;99.90;;;;;;5136902;27;19968;-75
2022/05/09 03:40:23;;;;;;;;;;;13.40;99.90;;;;;;5136180;27;19908;-75
2022/05/09 03:42:49;;;;;;;;;;;13.50;99.90;;;;;;5136045;27;19907;-75
2022/05/09 03:45:15;;;;;;;;;;;13.60;99.90;;;;;;5136233;27;19976;-75
2022/05/09 03:47:41;;;;;;;;;;;13.50;99.90;;;;;;5136590;27;20010;-75
2022/05/09 03:50:08;;;;;;;;;;;13.60;99.90;;;;;;5136397;27;19935;-75
2022/05/09 03:52:34;;;;;;;;;;;13.60;99.90;;;;;;5136059;27;20349;-75
2022/05/09 03:54:59;;;;;;;;;;;13.60;99.90;;;;;;5136109;27;19915;-75
2022/05/09 03:57:25;;;;;;;;;;;13.70;99.90;;;;;;5135798;27;19931;-75
2022/05/09 03:59:50;;;;;;;;;;;13.70;99.90;;;;;;5134985;27;19920;-75
2022/05/09 04:02:16;;;;;;;;;;;13.80;99.90;;;;;;5134717;27;20280;-76
2022/05/09 04:04:42;;;;;;;;;;;13.90;99.90;;;;;;5136158;27;19907;-75
2022/05/09 04:07:07;;;;;;;;;;;14.00;99.90;;;;;;5135775;27;19907;-75
2022/05/09 04:09:33;;;;;;;;;;;14.10;99.90;;;;;;5135573;27;20344;-75
2022/05/09 04:11:58;;;;;;;;;;;14.20;99.90;;;;;;5135738;27;19914;-75
2022/05/09 04:17:09;;;;;;;;;;;14.20;99.90;;;;;;5136034;27;19935;-75
2022/05/09 04:19:35;;;;;;;;;;;14.30;99.90;;;;;;5135613;27;19911;-75
2022/05/09 04:22:02;;;;;;;;;;;14.30;99.90;;;;;;5136009;27;19907;-75
2022/05/09 04:24:29;;;;;;;;;;;14.30;99.90;;;;;;5117020;27;20398;-75
2022/05/09 04:26:56;;;;;;;;;;;14.30;99.90;;;;;;5135951;27;19934;-75
2022/05/09 04:29:21;;;;;;;;;;;14.20;99.90;;;;;;5135091;27;19908;-75
2022/05/09 04:31:47;;;;;;;;;;;14.20;99.90;;;;;;5136092;27;20340;-75
2022/05/09 04:34:12;;;;;;;;;;;14.20;99.90;;;;;;5135741;27;20005;-75
2022/05/09 04:36:39;;;;;;;;;;;14.20;99.90;;;;;;5135296;27;19908;-75
2022/05/09 04:39:05;;;;;;;;;;;14.10;99.90;;;;;;5135223;27;20376;-75
2022/05/09 04:41:32;;;;;;;;;;;14.10;99.90;;;;;;5135132;27;19907;-75
2022/05/09 04:43:58;;;;;;;;;;;14.00;99.90;;;;;;5135350;27;19908;-75
2022/05/09 04:46:23;;;;;;;;;;;14.00;99.90;;;;;;5135348;27;20409;-75
2022/05/09 04:48:49;;;;;;;;;;;13.90;99.90;;;;;;5135469;27;19957;-75
2022/05/09 04:51:15;;;;;;;;;;;13.90;99.90;;;;;;5135685;27;19911;-75
2022/05/09 04:53:41;;;;;;;;;;;13.90;99.90;;;;;;5134997;27;19933;-75
2022/05/09 04:56:06;;;;;;;;;;;13.90;99.90;;;;;;5135268;27;19907;-75
2022/05/09 04:58:32;;;;;;;;;;;13.80;99.90;;;;;;5134855;27;19926;-75
2022/05/09 05:00:58;;;;;;;;;;;13.80;99.90;;;;;;5135368;27;19908;-75
2022/05/09 05:03:24;;;;;;;;;;;13.70;99.90;;;;;;5134667;27;20311;-75
2022/05/09 05:05:53;;;;;;;;;;;13.80;99.90;;;;;;5135232;27;19907;-75
2022/05/09 05:08:20;;;;;;;;;;;13.70;99.90;;;;;;5134172;27;20284;-75
2022/05/09 05:10:45;;;;;;;;;;;13.80;99.90;;;;;;5134716;27;19918;-75
2022/05/09 05:13:12;;;;;;;;;;;13.80;99.90;;;;;;5135012;27;19908;-75
2022/05/09 05:15:38;;;;;;;;;;;13.80;99.90;;;;;;5133639;27;20501;-75
2022/05/09 05:18:04;;;;;;;;;;;13.80;99.90;;;;;;5134821;27;19912;-75
2022/05/09 05:20:30;;;;;;;;;;;13.80;99.90;;;;;;5133616;27;19912;-75
2022/05/09 05:22:55;;;;;;;;;;;13.80;99.90;;;;;;5134554;27;20003;-75
2022/05/09 05:25:23;;;;;;;;;;;13.70;99.90;;;;;;5133538;27;19943;-75
2022/05/09 05:27:49;;;;;;;;;;;13.70;99.90;;;;;;5134557;27;19907;-75
2022/05/09 05:30:16;;;;;;;;;;;13.70;99.90;;;;;;5134689;27;20067;-75
2022/05/09 05:32:42;;;;;;;;;;;13.70;99.90;;;;;;5133995;27;19908;-75
2022/05/09 05:35:10;;;;;;;;;;;13.60;99.90;;;;;;5134424;27;19932;-75
2022/05/09 05:37:35;;;;;;;;;;;13.60;99.90;;;;;;5133694;27;20352;-75
2022/05/09 05:40:01;;;;;;;;;;;13.60;99.90;;;;;;5134147;27;19918;-75
2022/05/09 05:42:27;;;;;;;;;;;13.60;99.90;;;;;;5133810;27;19992;-75
2022/05/09 05:44:53;;;;;;;;;;;13.70;99.90;;;;;;5134038;27;19907;-75
2022/05/09 05:47:19;;;;;;;;;;;13.70;99.90;;;;;;5134294;27;19914;-75
2022/05/09 05:49:45;;;;;;;;;;;13.70;99.90;;;;;;5133844;27;19911;-75
2022/05/09 05:52:11;;;;;;;;;;;13.80;99.90;;;;;;5134321;27;19951;-75
2022/05/09 05:54:39;;;;;;;;;;;13.80;99.90;;;;;;5132885;27;20375;-75
2022/05/09 05:57:05;;;;;;;;;;;13.90;99.90;;;;;;5133963;27;19919;-75
2022/05/09 05:59:31;;;;;;;;;;;14.00;99.90;;;;;;5133670;27;19908;-75
2022/05/09 06:01:56;;;;;;;;;;;14.00;99.90;;;;;;5134165;27;19907;-75
2022/05/09 06:04:22;;;;;;;;;;;14.00;99.90;;;;;;5133646;27;19914;-75
2022/05/09 06:06:48;;;;;;;;;;;14.00;99.90;;;;;;5133981;27;19982;-75
2022/05/09 06:09:13;;;;;;;;;;;14.00;99.90;;;;;;5133887;27;19933;-75
2022/05/09 06:11:40;;;;;;;;;;;13.90;99.90;;;;;;5133390;27;19914;-76
2022/05/09 06:14:09;;;;;;;;;;;13.90;99.90;;;;;;5115383;27;19916;-75
2022/05/09 06:16:36;;;;;;;;;;;13.90;99.90;;;;;;5133251;27;19918;-75
2022/05/09 06:19:03;;;;;;;;;;;13.90;99.90;;;;;;5133782;27;20002;-75
2022/05/09 06:21:29;;;;;;;;;;;13.90;99.90;;;;;;5133248;27;19908;-75
2022/05/09 06:23:54;;;;;;;;;;;13.90;99.90;;;;;;5133712;28;19907;-75
2022/05/09 06:26:22;;;;;;;;;;;13.90;99.90;;;;;;5138145;27;19907;-75
2022/05/09 06:28:48;;;;;;;;;;;13.90;99.90;;;;;;5140524;27;19907;-75
2022/05/09 06:31:13;;;;;;;;;;;13.90;99.90;;;;;;5140218;27;20387;-75
2022/05/09 06:33:39;;;;;;;;;;;13.90;99.90;;;;;;5139661;27;20003;-75
2022/05/09 06:36:05;;;;;;;;;;;13.90;99.90;;;;;;5122343;27;19911;-75
2022/05/09 06:38:31;;;;;;;;;;;13.90;99.90;;;;;;5139821;27;19961;-75
2022/05/09 06:40:58;;;;;;;;;;;14.00;99.90;;;;;;5140533;27;19911;-75
2022/05/09 06:43:23;;;;;;;;;;;14.00;99.90;;;;;;5139762;27;20379;-75
2022/05/09 06:45:52;;;;;;;;;;;14.00;99.90;;;;;;5139790;27;19908;-75
2022/05/09 06:48:18;;;;;;;;;;;14.10;99.90;;;;;;5140265;27;19914;-75
2022/05/09 06:50:44;;;;;;;;;;;14.10;99.90;;;;;;5121181;27;19903;-75
2022/05/09 06:53:10;;;;;;;;;;;14.10;99.90;;;;;;5140004;27;19944;-76
2022/05/09 06:55:36;;;;;;;;;;;14.10;99.90;;;;;;5139714;27;19950;-75
2022/05/09 06:58:06;;;;;;;;;;;14.20;99.90;;;;;;5140007;27;19959;-76
2022/05/09 07:00:31;;;;;;;;;;;14.20;99.90;;;;;;5139537;27;19915;-75
2022/05/09 07:02:57;;;;;;;;;;;14.30;99.90;;;;;;5140524;27;19919;-75
2022/05/09 07:05:22;;;;;;;;;;;14.30;99.90;;;;;;5140466;27;19907;-76
2022/05/09 07:07:48;;;;;;;;;;;14.30;99.90;;;;;;5139332;27;20266;-76
2022/05/09 07:10:14;;;;;;;;;;;14.40;99.90;;;;;;5139884;27;19908;-76
2022/05/09 07:12:50;;;;;;;;;;;14.40;99.90;;;;;;5139519;27;19912;-76
2022/05/09 07:15:21;;;;;;;;;;;14.50;99.90;;;;;;5139627;27;19908;-76
2022/05/09 07:17:47;;;;;;;;;;;14.40;99.90;;;;;;5139080;27;19921;-76
2022/05/09 07:20:12;;;;;;;;;;;14.40;99.90;;;;;;5121751;27;19911;-76
2022/05/09 07:22:38;;;;;;;;;;;14.40;99.90;;;;;;5138960;27;19975;-76
2022/05/09 07:25:04;;;;;;;;;;;14.40;99.90;;;;;;5139380;27;19907;-76
2022/05/09 07:27:30;;;;;;;;;;;14.40;99.90;;;;;;5139384;27;19908;-76
2022/05/09 07:29:56;;;;;;;;;;;14.50;99.90;;;;;;5135015;27;20006;-75
2022/05/09 07:32:21;;;;;;;;;;;14.50;99.90;;;;;;5147117;27;19959;-76
2022/05/09 07:34:48;;;;;;;;;;;14.60;99.90;;;;;;5159424;27;20399;-76
2022/05/09 07:37:18;;;;;;;;;;;14.60;99.90;;;;;;5158861;27;19918;-76
2022/05/09 07:39:43;;;;;;;;;;;14.60;99.90;;;;;;5156017;27;19911;-76
2022/05/09 07:42:11;;;;;;;;;;;14.60;99.90;;;;;;5156451;27;20256;-76
2022/05/09 07:44:36;;;;;;;;;;;14.60;99.90;;;;;;5156456;27;19911;-76
2022/05/09 07:47:02;;;;;;;;;;;14.60;99.90;;;;;;5157312;27;20412;-77
2022/05/09 07:49:28;;;;;;;;;;;14.60;99.90;;;;;;5138067;27;19950;-76
2022/05/09 07:51:53;;;;;;;;;;;14.60;99.90;;;;;;5157298;27;19932;-76
2022/05/09 07:54:19;;;;;;;;;;;14.60;99.90;;;;;;5156908;27;19914;-76
2022/05/09 07:56:44;;;;;;;;;;;14.70;99.90;;;;;;5156150;27;19911;-77
2022/05/09 07:59:11;;;;;;;;;;;14.70;99.90;;;;;;5156016;27;20006;-76
2022/05/09 08:01:36;;;;;;;;;;;14.80;99.90;;;;;;5156334;27;19907;-76
2022/05/09 08:04:02;;;;;;;;;;;14.80;99.90;;;;;;5156930;27;19918;-76
2022/05/09 08:06:28;;;;;;;;;;;14.80;99.90;;;;;;5156756;27;19933;-75
2022/05/09 08:08:53;;;;;;;;;;;14.80;99.90;;;;;;5150932;27;19961;-75
2022/05/09 08:11:20;;;;;;;;;;;14.70;99.90;;;;;;5135636;27;19908;-76
2022/05/09 08:13:46;;;;;;;;;;;14.70;99.90;;;;;;5133400;27;19911;-76
2022/05/09 08:16:12;;;;;;;;;;;14.70;99.90;;;;;;5134903;27;19907;-76
2022/05/09 08:18:38;;;;;;;;;;;14.60;99.90;;;;;;5133832;27;19916;-75
2022/05/09 08:21:04;;;;;;;;;;;14.60;99.90;;;;;;5135699;27;19929;-75
2022/05/09 08:23:31;;;;;;;;;;;14.60;99.90;;;;;;5134608;27;19998;-75
2022/05/09 08:25:57;;;;;;;;;;;14.50;99.90;;;;;;5135596;27;19908;-75
2022/05/09 08:28:22;;;;;;;;;;;14.50;99.90;;;;;;5135486;27;20390;-75
2022/05/09 08:30:49;;;;;;;;;;;14.50;99.90;;;;;;5134646;27;20523;-75
2022/05/09 08:33:19;;;;;;;;;;;14.50;99.90;;;;;;5135595;27;20317;-75
2022/05/09 08:35:46;;;;;;;;;;;14.60;99.90;;;;;;5134780;27;20386;-75
2022/05/09 08:38:12;;;;;;;;;;;14.60;99.90;;;;;;5135426;27;19915;-75
2022/05/09 08:40:43;;;;;;;;;;;14.60;99.90;;;;;;5134486;27;20186;-75
2022/05/09 08:43:17;;;;;;;;;;;14.60;99.90;;;;;;5134874;27;19911;-75
2022/05/09 08:45:47;;;;;;;;;;;14.60;99.90;;;;;;5134880;27;19907;-75
2022/05/09 08:48:19;;;;;;;;;;;14.70;99.90;;;;;;5134173;27;20006;-76
2022/05/09 08:51:05;;;;;;;;;;;14.70;99.90;;;;;;5134063;27;19907;-75
2022/05/09 08:53:33;;;;;;;;;;;14.70;99.90;;;;;;5119264;27;19918;-75
2022/05/09 08:55:59;;;;;;;;;;;14.80;99.90;;;;;;5134557;27;19994;-75
2022/05/09 08:58:39;;;;;;;;;;;14.80;99.90;;;;;;5133348;27;19962;-75
2022/05/09 09:01:20;;;;;;;;;;;14.80;99.90;;;;;;5134268;27;20268;-75
2022/05/09 09:03:54;;;;;;;;;;;14.90;99.90;;;;;;5133758;27;19911;-75
2022/05/09 09:06:31;;;;;;;;;;;14.90;99.90;;;;;;5134338;27;19907;-75
2022/05/09 09:09:17;;;;;;;;;;;15.00;99.90;;;;;;5134228;27;19914;-75
2022/05/09 09:11:49;;;;;;;;;;;15.10;99.90;;;;;;5132299;27;19946;-75
2022/05/09 09:14:23;;;;;;;;;;;15.10;99.90;;;;;;5115832;27;19958;-75
2022/05/09 09:16:52;;;;;;;;;;;15.00;99.90;;;;;;5133733;27;19919;-75
2022/05/09 09:19:32;;;;;;;;;;;15.00;99.90;;;;;;5133765;27;19923;-75
2022/05/09 09:22:18;;;;;;;;;;;15.00;99.90;;;;;;5133996;27;19919;-75
2022/05/09 09:24:49;;;;;;;;;;;15.10;99.90;;;;;;5133508;27;19930;-75
2022/05/09 09:27:53;;;;;;;;;;;15.00;99.90;;;;;;5133479;27;19911;-76
2022/05/09 09:30:21;;;;;;;;;;;15.00;99.90;;;;;;5050211;28;20008;-75
2022/05/09 09:32:53;;;;;;;;;;;15.10;99.90;;;;;;5118688;27;20022;-76
2022/05/09 09:35:22;;;;;;;;;;;15.10;99.90;;;;;;5133582;27;20002;-76
2022/05/09 09:37:56;;;;;;;;;;;15.10;99.90;;;;;;5132993;27;19990;-76
2022/05/09 09:40:22;;;;;;;;;;;15.20;99.90;;;;;;5133578;27;19934;-75
2022/05/09 09:42:51;;;;;;;;;;;15.30;99.90;;;;;;5132756;27;20359;-75
2022/05/09 09:45:40;;;;;;;;;;;15.30;99.90;;;;;;5133378;27;20271;-75
2022/05/09 09:48:05;;;;;;;;;;;15.40;99.90;;;;;;5133782;27;20360;-76
2022/05/09 09:50:31;;;;;;;;;;;15.40;99.90;;;;;;5133576;27;19927;-75
2022/05/09 09:52:57;;;;;;;;;;;15.50;99.90;;;;;;5135145;27;19907;-75
2022/05/09 09:55:23;;;;;;;;;;;15.50;99.90;;;;;;5153425;27;19925;-75
2022/05/09 09:57:49;;;;;;;;;;;15.60;99.90;;;;;;5152910;27;19931;-76
2022/05/09 10:00:15;;;;;;;;;;;15.50;99.90;;;;;;5152930;27;20324;-75
2022/05/09 10:02:40;;;;;;;;;;;15.60;99.90;;;;;;5153526;27;20449;-75
2022/05/09 10:05:16;;;;;;;;;;;15.60;99.90;;;;;;5153931;27;19907;-75
2022/05/09 10:07:45;;;;;;;;;;;15.50;99.90;;;;;;5153229;27;19907;-75
2022/05/09 10:10:10;;;;;;;;;;;15.50;99.90;;;;;;5153890;27;19907;-75
2022/05/09 10:12:38;;;;;;;;;;;15.50;99.90;;;;;;5152692;27;19959;-76
2022/05/09 10:15:18;;;;;;;;;;;15.50;99.90;;;;;;5153442;27;19915;-75
2022/05/09 10:17:44;;;;;;;;;;;15.50;99.90;;;;;;5152724;27;19911;-76
2022/05/09 10:20:23;;;;;;;;;;;15.50;99.90;;;;;;5153386;27;19934;-76
2022/05/09 10:25:36;;;;;;;;;;;15.50;99.90;;;;;;5152800;27;19914;-76
2022/05/09 10:28:10;;;;;;;;;;;15.40;99.90;;;;;;5153369;27;19907;-75
2022/05/09 10:30:38;;;;;;;;;;;15.40;99.90;;;;;;5153068;27;19908;-76
2022/05/09 10:33:09;;;;;;;;;;;15.40;99.90;;;;;;5153412;27;19961;-76
2022/05/09 10:35:37;;;;;;;;;;;15.40;99.90;;;;;;5152687;27;20355;-75
2022/05/09 10:38:02;;;;;;;;;;;15.40;99.90;;;;;;5153663;27;19911;-75
2022/05/09 10:40:41;;;;;;;;;;;15.50;99.90;;;;;;5153199;27;19911;-75
2022/05/09 10:43:13;;;;;;;;;;;15.50;99.90;;;;;;5153218;27;19914;-76
2022/05/09 10:45:48;;;;;;;;;;;15.50;99.90;;;;;;5152729;27;19918;-76
2022/05/09 10:48:34;;;;;;;;;;;15.50;99.90;;;;;;5153750;27;19908;-76
2022/05/09 10:51:00;;;;;;;;;;;15.40;99.90;;;;;;5153338;27;19914;-75
2022/05/09 10:53:38;;;;;;;;;;;15.40;99.90;;;;;;5153526;27;19907;-75
2022/05/09 10:56:07;;;;;;;;;;;15.40;99.90;;;;;;5148925;27;19907;-75
2022/05/09 10:58:38;;;;;;;;;;;15.30;99.90;;;;;;5133855;27;19923;-75
2022/05/09 11:01:20;;;;;;;;;;;15.30;99.90;;;;;;5153738;27;19938;-76
2022/05/09 11:03:46;;;;;;;;;;;15.30;99.90;;;;;;5153512;27;19911;-76
2022/05/09 11:06:23;;;;;;;;;;;15.20;99.90;;;;;;5153703;27;20344;-76
2022/05/09 11:08:58;;;;;;;;;;;15.20;99.90;;;;;;5140724;27;19907;-75
2022/05/09 11:11:25;;;;;;;;;;;15.10;99.90;;;;;;5138990;27;20337;-75
2022/05/09 11:13:50;;;;;;;;;;;15.10;99.90;;;;;;5156721;27;20375;-75
2022/05/09 11:16:36;;;;;;;;;;;15.10;99.90;;;;;;5139512;27;19963;-75
2022/05/09 11:19:29;;;;;;;;;;;15.10;99.90;;;;;;5156581;27;19923;-75
2022/05/09 11:21:55;;;;;;;;;;;15.10;99.90;;;;;;5125069;27;20381;-75
2022/05/09 11:24:29;;;;;;;;;;;15.00;99.90;;;;;;5157281;27;19911;-75
2022/05/09 11:27:07;;;;;;;;;;;15.00;99.90;;;;;;5157115;27;19918;-75
2022/05/09 11:29:39;;;;;;;;;;;15.00;99.90;;;;;;5157341;27;20022;-76
2022/05/09 11:32:08;;;;;;;;;;;15.00;99.90;;;;;;5157370;27;19955;-76
2022/05/09 11:35:01;;;;;;;;;;;15.00;99.90;;;;;;5156693;27;19913;-75
2022/05/09 11:37:41;;;;;;;;;;;15.00;99.90;;;;;;5157035;27;20306;-75
2022/05/09 11:40:10;;;;;;;;;;;15.00;99.90;;;;;;5157201;27;19922;-75
2022/05/09 11:45:44;;;;;;;;;;;15.10;99.90;;;;;;5152811;27;19930;-75
2022/05/09 11:48:13;;;;;;;;;;;15.00;99.90;;;;;;5157248;27;19907;-75
2022/05/09 11:51:04;;;;;;;;;;;15.00;99.90;;;;;;5156295;27;19911;-75
2022/05/09 11:53:31;;;;;;;;;;;15.00;99.90;;;;;;5124890;27;19908;-75
2022/05/09 11:55:57;;;;;;;;;;;15.00;99.90;;;;;;5156203;27;20252;-75
2022/05/09 11:58:24;;;;;;;;;;;15.10;99.90;;;;;;5157051;27;19926;-75
2022/05/09 12:00:50;;;;;;;;;;;15.00;99.90;;;;;;5155738;27;19907;-75
2022/05/09 12:03:36;;;;;;;;;;;15.10;99.90;;;;;;5156331;27;20405;-75
2022/05/09 12:06:03;;;;;;;;;;;15.10;99.90;;;;;;5156100;27;20325;-75
2022/05/09 12:08:42;;;;;;;;;;;15.10;99.90;;;;;;5156470;27;19918;-75
2022/05/09 12:11:31;;;;;;;;;;;15.10;99.90;;;;;;5156649;27;19930;-75
2022/05/09 12:13:59;;;;;;;;;;;15.10;99.90;;;;;;5144541;27;19911;-75
2022/05/09 12:16:35;;;;;;;;;;;15.10;99.90;;;;;;5156740;27;19911;-75
2022/05/09 12:19:03;;;;;;;;;;;15.20;99.90;;;;;;5155482;27;19963;-74
2022/05/09 12:21:32;;;;;;;;;;;15.20;99.90;;;;;;5156451;27;19964;-74
2022/05/09 12:24:18;;;;;;;;;;;15.30;99.90;;;;;;5154607;27;19907;-74
2022/05/09 12:26:45;;;;;;;;;;;15.30;99.90;;;;;;5155829;27;19997;-74
2022/05/09 12:29:11;;;;;;;;;;;15.20;99.90;;;;;;5156751;27;19907;-74
2022/05/09 12:31:45;;;;;;;;;;;15.30;99.90;;;;;;5155874;27;19915;-74
2022/05/09 12:34:12;;;;;;;;;;;15.30;99.90;;;;;;5155838;27;20396;-74
2022/05/09 12:36:38;;;;;;;;;;;15.30;99.90;;;;;;5155580;27;19907;-74
2022/05/09 12:39:22;;;;;;;;;;;15.30;99.90;;;;;;5154110;27;19922;-74
2022/05/09 12:41:53;;;;;;;;;;;15.30;99.90;;;;;;5134112;27;19961;-74
2022/05/09 12:44:29;;;;;;;;;;;15.30;99.90;;;;;;5134492;27;19907;-74
2022/05/09 12:47:00;;;;;;;;;;;15.40;99.90;;;;;;5134292;27;19964;-74
2022/05/09 12:49:28;;;;;;;;;;;15.40;99.90;;;;;;5134516;27;19959;-75
2022/05/09 12:51:57;;;;;;;;;;;15.50;99.90;;;;;;5133832;27;19960;-74
2022/05/09 12:54:25;;;;;;;;;;;15.50;99.90;;;;;;5134280;27;20398;-74
2022/05/09 12:56:52;;;;;;;;;;;15.50;99.90;;;;;;5133492;27;19913;-73
2022/05/09 12:59:19;;;;;;;;;;;15.70;99.90;;;;;;5134315;27;20324;-74
2022/05/09 13:01:50;;;;;;;;;;;15.70;99.90;;;;;;5115396;27;20268;-74
2022/05/09 13:04:21;;;;;;;;;;;15.60;99.90;;;;;;5134284;27;19915;-74
2022/05/09 13:06:52;;;;;;;;;;;15.60;99.90;;;;;;5133387;27;19912;-74
2022/05/09 13:09:19;;;;;;;;;;;15.70;99.90;;;;;;5133676;27;19914;-75
2022/05/09 13:11:49;;;;;;;;;;;15.80;99.90;;;;;;5133481;27;20380;-75
2022/05/09 13:14:22;;;;;;;;;;;15.90;99.90;;;;;;5133746;27;20002;-75
2022/05/09 13:16:56;;;;;;;;;;;16.00;99.90;;;;;;5132971;27;20386;-76
2022/05/09 13:19:22;;;;;;;;;;;16.00;99.90;;;;;;5133322;27;19911;-76
2022/05/09 13:21:49;;;;;;;;;;;16.10;99.90;;;;;;5132750;27;19913;-76
2022/05/09 13:24:35;;;;;;;;;;;16.20;99.90;;;;;;5133644;27;19914;-76
2022/05/09 13:27:05;;;;;;;;;;;16.40;99.90;;;;;;5132504;27;19915;-76
2022/05/09 13:29:39;;;;;;;;;;;16.50;99.90;;;;;;5133558;27;19907;-76
2022/05/09 13:32:06;;;;;;;;;;;16.60;99.90;;;;;;5133355;27;19908;-76
2022/05/09 13:34:42;;;;;;;;;;;16.80;99.90;;;;;;5133630;27;19950;-76
2022/05/09 13:37:12;;;;;;;;;;;16.90;99.90;;;;;;5133135;27;20010;-76
2022/05/09 13:39:39;;;;;;;;;;;17.00;99.90;;;;;;5133851;27;19912;-77
2022/05/09 13:42:24;;;;;;;;;;;17.10;99.90;;;;;;5132887;27;20384;-76
2022/05/09 13:44:51;;;;;;;;;;;17.20;99.90;;;;;;5132686;27;20307;-76
2022/05/09 13:47:18;;;;;;;;;;;17.40;99.90;;;;;;5133421;27;19914;-76
2022/05/09 13:49:45;;;;;;;;;;;17.30;99.90;;;;;;5133099;27;19915;-76
2022/05/09 13:52:12;;;;;;;;;;;17.30;99.90;;;;;;5114894;27;19930;-77
2022/05/09 13:54:57;;;;;;;;;;;17.20;99.90;;;;;;5133406;27;19907;-76
2022/05/09 13:57:28;;;;;;;;;;;17.00;99.90;;;;;;5133154;27;19920;-76
2022/05/09 13:59:55;;;;;;;;;;;17.00;99.90;;;;;;5132746;27;19907;-76
2022/05/09 14:02:21;;;;;;;;;;;16.90;99.90;;;;;;5133340;27;19960;-76
2022/05/09 14:04:49;;;;;;;;;;;16.70;99.90;;;;;;5132401;27;20356;-76
2022/05/09 14:10:04;;;;;;;;;;;16.70;99.90;;;;;;5132778;27;20453;-76
2022/05/09 14:12:36;;;;;;;;;;;16.80;99.90;;;;;;5133548;27;19931;-77
2022/05/09 14:15:14;;;;;;;;;;;16.70;99.90;;;;;;5132736;27;19907;-77
2022/05/09 14:17:42;;;;;;;;;;;16.90;99.90;;;;;;5132755;27;19915;-77
2022/05/09 14:20:09;;;;;;;;;;;17.10;99.90;;;;;;5133401;27;19999;-76
2022/05/09 14:22:35;;;;;;;;;;;17.20;99.90;;;;;;5132850;27;19908;-76
2022/05/09 14:30:40;;;;;;;;;;;17.20;99.90;;;;;;5132721;28;20045;-75
2022/05/09 14:33:25;;;;;;;;;;;17.10;99.90;;;;;;5132832;28;19908;-76
2022/05/09 14:35:50;;;;;;;;;;;16.90;99.90;;;;;;5132200;28;19909;-76
2022/05/09 14:38:24;;;;;;;;;;;16.70;99.90;;;;;;5114339;28;19963;-76
2022/05/09 14:40:50;;;;;;;;;;;16.70;99.90;;;;;;5132010;28;20283;-76
2022/05/09 14:43:29;;;;;;;;;;;16.60;99.90;;;;;;5132689;28;19908;-76
2022/05/09 14:46:05;;;;;;;;;;;16.60;99.90;;;;;;5132059;27;19947;-76
2022/05/09 14:48:34;;;;;;;;;;;16.40;99.90;;;;;;5136827;27;19908;-76
2022/05/09 14:51:02;;;;;;;;;;;16.40;99.90;;;;;;5136329;27;20493;-76
2022/05/09 14:53:29;;;;;;;;;;;16.30;99.90;;;;;;5136850;27;20400;-76